createdAt,value
2016-12-18T00:00:20.912Z,1030.97
2016-12-18T00:00:47.022Z,1030.98
2016-12-18T00:01:13.172Z,1031.01
2016-12-18T00:01:39.313Z,1030.99
2016-12-18T00:02:05.448Z,1031.02
2016-12-18T00:02:31.583Z,1031.01
2016-12-18T00:02:57.706Z,1031.01
2016-12-18T00:03:23.933Z,1030.98
2016-12-18T00:03:50.029Z,1030.97
2016-12-18T00:04:16.160Z,1030.96
2016-12-18T00:04:42.264Z,1030.93
2016-12-18T00:05:08.399Z,1030.94
2016-12-18T00:05:34.557Z,1030.95
2016-12-18T00:06:00.697Z,1030.92
2016-12-18T00:06:26.802Z,1030.93
2016-12-18T00:06:52.994Z,1030.98
2016-12-18T00:07:19.116Z,1030.98
2016-12-18T00:07:45.295Z,1031.01
2016-12-18T00:08:11.417Z,1030.98
2016-12-18T00:08:37.530Z,1031.01
2016-12-18T00:09:03.725Z,1031.07
2016-12-18T00:09:29.828Z,1031.03
2016-12-18T00:09:55.947Z,1031.05
2016-12-18T00:10:22.076Z,1031.05
2016-12-18T00:10:48.211Z,1031.02
2016-12-18T00:11:14.346Z,1031.05
2016-12-18T00:11:40.488Z,1030.99
2016-12-18T00:12:06.605Z,1030.97
2016-12-18T00:12:32.710Z,1030.96
2016-12-18T00:12:58.884Z,1031.01
2016-12-18T00:13:25.101Z,1031.02
2016-12-18T00:13:51.200Z,1031
2016-12-18T00:14:17.313Z,1030.97
2016-12-18T00:14:43.478Z,1030.98
2016-12-18T00:15:09.609Z,1030.96
2016-12-18T00:15:35.747Z,1030.95
2016-12-18T00:16:01.866Z,1030.97
2016-12-18T00:16:27.994Z,1030.97
2016-12-18T00:16:54.170Z,1030.92
2016-12-18T00:17:20.295Z,1030.91
2016-12-18T00:17:46.423Z,1030.93
2016-12-18T00:18:12.557Z,1030.93
2016-12-18T00:18:38.716Z,1030.9
2016-12-18T00:19:04.891Z,1030.89
2016-12-18T00:19:31.025Z,1030.88
2016-12-18T00:19:57.138Z,1030.88
2016-12-18T00:20:23.298Z,1030.87
2016-12-18T00:20:49.389Z,1030.82
2016-12-18T00:21:15.555Z,1030.85
2016-12-18T00:21:41.681Z,1030.81
2016-12-18T00:22:07.786Z,1030.82
2016-12-18T00:22:33.966Z,1030.81
2016-12-18T00:23:00.104Z,1030.8
2016-12-18T00:23:26.210Z,1030.83
2016-12-18T00:23:52.311Z,1030.8
2016-12-18T00:24:18.451Z,1030.79
2016-12-18T00:24:44.606Z,1030.74
2016-12-18T00:25:10.726Z,1030.77
2016-12-18T00:25:36.829Z,1030.77
2016-12-18T00:26:03.021Z,1030.74
2016-12-18T00:26:29.195Z,1030.75
2016-12-18T00:26:55.360Z,1030.71
2016-12-18T00:27:21.464Z,1030.67
2016-12-18T00:27:47.589Z,1030.7
2016-12-18T00:28:13.787Z,1030.7
2016-12-18T00:28:39.944Z,1030.66
2016-12-18T00:29:06.092Z,1030.72
2016-12-18T00:29:32.205Z,1030.71
2016-12-18T00:29:58.349Z,1030.72
2016-12-18T00:30:24.542Z,1030.72
2016-12-18T00:30:50.682Z,1030.75
2016-12-18T00:31:16.809Z,1030.76
2016-12-18T00:31:42.920Z,1030.74
2016-12-18T00:32:09.022Z,1030.74
2016-12-18T00:32:35.140Z,1030.78
2016-12-18T00:33:01.274Z,1030.76
2016-12-18T00:33:27.417Z,1030.72
2016-12-18T00:33:53.550Z,1030.73
2016-12-18T00:34:19.678Z,1030.68
2016-12-18T00:34:45.800Z,1030.72
2016-12-18T00:35:11.980Z,1030.69
2016-12-18T00:35:38.116Z,1030.69
2016-12-18T00:36:04.240Z,1030.65
2016-12-18T00:36:30.357Z,1030.65
2016-12-18T00:36:56.457Z,1030.61
2016-12-18T00:37:22.579Z,1030.66
2016-12-18T00:37:48.705Z,1030.61
2016-12-18T00:38:14.807Z,1030.62
2016-12-18T00:38:40.933Z,1030.67
2016-12-18T00:39:07.079Z,1030.65
2016-12-18T00:39:33.182Z,1030.65
2016-12-18T00:39:59.300Z,1030.66
2016-12-18T00:40:25.414Z,1030.67
2016-12-18T00:40:51.590Z,1030.68
2016-12-18T00:41:17.793Z,1030.63
2016-12-18T00:41:43.988Z,1030.65
2016-12-18T00:42:10.122Z,1030.63
2016-12-18T00:42:36.231Z,1030.63
2016-12-18T00:43:02.343Z,1030.67
2016-12-18T00:43:28.458Z,1030.61
2016-12-18T00:43:54.580Z,1030.59
2016-12-18T00:44:20.692Z,1030.6
2016-12-18T00:44:46.795Z,1030.57
2016-12-18T00:45:12.928Z,1030.54
2016-12-18T00:45:39.040Z,1030.56
2016-12-18T00:46:05.149Z,1030.54
2016-12-18T00:46:31.266Z,1030.54
2016-12-18T00:46:57.378Z,1030.57
2016-12-18T00:47:23.485Z,1030.54
2016-12-18T00:47:49.602Z,1030.56
2016-12-18T00:48:15.728Z,1030.56
2016-12-18T00:48:41.832Z,1030.55
2016-12-18T00:49:07.949Z,1030.55
2016-12-18T00:49:34.066Z,1030.56
2016-12-18T00:50:00.172Z,1030.54
2016-12-18T00:50:26.280Z,1030.52
2016-12-18T00:50:52.406Z,1030.52
2016-12-18T00:51:18.516Z,1030.51
2016-12-18T00:51:44.623Z,1030.54
2016-12-18T00:52:10.748Z,1030.51
2016-12-18T00:52:36.855Z,1030.48
2016-12-18T00:53:02.974Z,1030.48
2016-12-18T00:53:29.086Z,1030.47
2016-12-18T00:53:55.200Z,1030.48
2016-12-18T00:54:21.320Z,1030.47
2016-12-18T00:54:47.427Z,1030.46
2016-12-18T00:55:13.539Z,1030.48
2016-12-18T00:55:39.668Z,1030.47
2016-12-18T00:56:05.781Z,1030.44
2016-12-18T00:56:31.881Z,1030.42
2016-12-18T00:56:58.005Z,1030.43
2016-12-18T00:57:24.119Z,1030.43
2016-12-18T00:57:50.227Z,1030.38
2016-12-18T00:58:16.349Z,1030.41
2016-12-18T00:58:42.457Z,1030.43
2016-12-18T00:59:08.584Z,1030.39
2016-12-18T00:59:34.697Z,1030.36
2016-12-18T01:00:00.805Z,1030.4
2016-12-18T01:00:26.925Z,1030.37
2016-12-18T01:00:53.036Z,1030.37
2016-12-18T01:01:19.136Z,1030.37
2016-12-18T01:01:45.260Z,1030.39
2016-12-18T01:02:11.388Z,1030.39
2016-12-18T01:02:37.514Z,1030.38
2016-12-18T01:03:03.627Z,1030.39
2016-12-18T01:03:29.747Z,1030.38
2016-12-18T01:03:55.855Z,1030.42
2016-12-18T01:04:21.981Z,1030.44
2016-12-18T01:04:48.078Z,1030.41
2016-12-18T01:05:14.202Z,1030.45
2016-12-18T01:05:40.319Z,1030.44
2016-12-18T01:06:06.424Z,1030.45
2016-12-18T01:06:32.544Z,1030.43
2016-12-18T01:06:58.669Z,1030.44
2016-12-18T01:07:24.768Z,1030.48
2016-12-18T01:07:50.879Z,1030.49
2016-12-18T01:08:16.997Z,1030.49
2016-12-18T01:08:43.112Z,1030.5
2016-12-18T01:09:09.222Z,1030.5
2016-12-18T01:09:35.334Z,1030.43
2016-12-18T01:10:01.447Z,1030.48
2016-12-18T01:10:27.577Z,1030.46
2016-12-18T01:10:53.684Z,1030.46
2016-12-18T01:11:19.796Z,1030.44
2016-12-18T01:11:45.918Z,1030.43
2016-12-18T01:12:12.025Z,1030.45
2016-12-18T01:12:38.133Z,1030.42
2016-12-18T01:13:04.261Z,1030.45
2016-12-18T01:13:30.373Z,1030.43
2016-12-18T01:13:56.475Z,1030.44
2016-12-18T01:14:22.597Z,1030.42
2016-12-18T01:14:48.713Z,1030.43
2016-12-18T01:15:14.822Z,1030.41
2016-12-18T01:15:40.934Z,1030.42
2016-12-18T01:16:07.035Z,1030.42
2016-12-18T01:16:33.166Z,1030.42
2016-12-18T01:16:59.276Z,1030.42
2016-12-18T01:17:25.384Z,1030.4
2016-12-18T01:17:51.504Z,1030.41
2016-12-18T01:18:17.622Z,1030.41
2016-12-18T01:18:43.726Z,1030.44
2016-12-18T01:19:09.845Z,1030.51
2016-12-18T01:19:35.971Z,1030.47
2016-12-18T01:20:02.073Z,1030.48
2016-12-18T01:20:28.193Z,1030.5
2016-12-18T01:20:54.299Z,1030.5
2016-12-18T01:21:20.424Z,1030.51
2016-12-18T01:21:46.541Z,1030.49
2016-12-18T01:22:12.656Z,1030.41
2016-12-18T01:22:38.764Z,1030.47
2016-12-18T01:23:04.882Z,1030.45
2016-12-18T01:23:30.987Z,1030.46
2016-12-18T01:23:57.108Z,1030.42
2016-12-18T01:24:23.237Z,1030.42
2016-12-18T01:24:49.341Z,1030.39
2016-12-18T01:25:15.454Z,1030.37
2016-12-18T01:25:41.572Z,1030.37
2016-12-18T01:26:07.684Z,1030.36
2016-12-18T01:26:33.807Z,1030.35
2016-12-18T01:26:59.905Z,1030.34
2016-12-18T01:27:26.022Z,1030.42
2016-12-18T01:27:52.139Z,1030.36
2016-12-18T01:28:18.246Z,1030.36
2016-12-18T01:28:44.390Z,1030.37
2016-12-18T01:29:10.512Z,1030.37
2016-12-18T01:29:36.623Z,1030.36
2016-12-18T01:30:02.727Z,1030.36
2016-12-18T01:30:28.853Z,1030.37
2016-12-18T01:30:54.970Z,1030.33
2016-12-18T01:31:21.077Z,1030.35
2016-12-18T01:31:47.204Z,1030.28
2016-12-18T01:32:13.320Z,1030.32
2016-12-18T01:32:39.453Z,1030.29
2016-12-18T01:33:05.568Z,1030.29
2016-12-18T01:33:31.686Z,1030.25
2016-12-18T01:33:57.792Z,1030.22
2016-12-18T01:34:23.910Z,1030.25
2016-12-18T01:34:50.026Z,1030.21
2016-12-18T01:35:16.132Z,1030.21
2016-12-18T01:35:42.246Z,1030.21
2016-12-18T01:36:08.369Z,1030.18
2016-12-18T01:36:34.479Z,1030.15
2016-12-18T01:37:00.589Z,1030.17
2016-12-18T01:37:26.711Z,1030.12
2016-12-18T01:37:52.822Z,1030.11
2016-12-18T01:38:18.950Z,1030.08
2016-12-18T01:38:45.057Z,1030.09
2016-12-18T01:39:11.172Z,1030.09
2016-12-18T01:39:37.292Z,1030.05
2016-12-18T01:40:03.399Z,1030.08
2016-12-18T01:40:29.601Z,1030.16
2016-12-18T01:40:55.727Z,1030.13
2016-12-18T01:41:21.840Z,1030.08
2016-12-18T01:41:47.943Z,1030.07
2016-12-18T01:42:14.062Z,1030.11
2016-12-18T01:42:40.179Z,1030.08
2016-12-18T01:43:06.302Z,1030.04
2016-12-18T01:43:32.407Z,1030.01
2016-12-18T01:43:58.511Z,1030.01
2016-12-18T01:44:24.638Z,1030.01
2016-12-18T01:44:50.753Z,1030
2016-12-18T01:45:16.863Z,1029.99
2016-12-18T01:45:42.980Z,1029.97
2016-12-18T01:46:09.099Z,1029.99
2016-12-18T01:46:35.203Z,1030
2016-12-18T01:47:01.325Z,1029.94
2016-12-18T01:47:27.446Z,1029.96
2016-12-18T01:47:53.551Z,1029.95
2016-12-18T01:48:19.667Z,1029.93
2016-12-18T01:48:45.775Z,1029.96
2016-12-18T01:49:11.902Z,1029.9
2016-12-18T01:49:38.021Z,1029.95
2016-12-18T01:50:04.128Z,1029.93
2016-12-18T01:50:30.247Z,1029.95
2016-12-18T01:50:56.366Z,1029.93
2016-12-18T01:51:22.470Z,1029.92
2016-12-18T01:51:48.585Z,1029.96
2016-12-18T01:52:14.704Z,1029.89
2016-12-18T01:52:40.808Z,1029.93
2016-12-18T01:53:06.921Z,1029.93
2016-12-18T01:53:33.042Z,1029.92
2016-12-18T01:53:59.148Z,1029.89
2016-12-18T01:54:25.275Z,1029.89
2016-12-18T01:54:51.376Z,1029.9
2016-12-18T01:55:17.494Z,1029.88
2016-12-18T01:55:43.617Z,1029.92
2016-12-18T01:56:09.718Z,1029.91
2016-12-18T01:56:35.834Z,1029.89
2016-12-18T01:57:01.960Z,1029.86
2016-12-18T01:57:28.065Z,1029.88
2016-12-18T01:57:54.176Z,1029.89
2016-12-18T01:58:20.299Z,1029.9
2016-12-18T01:58:46.412Z,1029.89
2016-12-18T01:59:12.514Z,1029.87
2016-12-18T01:59:38.635Z,1029.87
2016-12-18T02:00:04.744Z,1029.9
2016-12-18T02:00:30.863Z,1029.89
2016-12-18T02:00:56.970Z,1029.88
2016-12-18T02:01:23.075Z,1029.85
2016-12-18T02:01:49.205Z,1029.85
2016-12-18T02:02:15.323Z,1029.84
2016-12-18T02:02:41.431Z,1029.83
2016-12-18T02:03:07.552Z,1029.82
2016-12-18T02:03:33.663Z,1029.86
2016-12-18T02:03:59.773Z,1029.82
2016-12-18T02:04:25.892Z,1029.83
2016-12-18T02:04:52.021Z,1029.84
2016-12-18T02:05:18.123Z,1029.82
2016-12-18T02:05:44.238Z,1029.86
2016-12-18T02:06:10.340Z,1029.87
2016-12-18T02:06:36.458Z,1029.85
2016-12-18T02:07:02.573Z,1029.88
2016-12-18T02:07:28.678Z,1029.89
2016-12-18T02:07:54.800Z,1029.89
2016-12-18T02:08:20.955Z,1029.89
2016-12-18T02:08:47.053Z,1029.92
2016-12-18T02:09:13.167Z,1029.92
2016-12-18T02:09:39.291Z,1029.9
2016-12-18T02:10:05.392Z,1029.89
2016-12-18T02:10:31.502Z,1029.94
2016-12-18T02:10:57.617Z,1029.9
2016-12-18T02:11:23.744Z,1029.89
2016-12-18T02:11:49.858Z,1029.87
2016-12-18T02:12:15.961Z,1029.86
2016-12-18T02:12:42.113Z,1029.88
2016-12-18T02:13:08.234Z,1029.87
2016-12-18T02:13:34.338Z,1029.87
2016-12-18T02:14:00.452Z,1029.86
2016-12-18T02:14:26.569Z,1029.85
2016-12-18T02:14:52.677Z,1029.89
2016-12-18T02:15:18.779Z,1029.85
2016-12-18T02:15:44.909Z,1029.85
2016-12-18T02:16:11.019Z,1029.86
2016-12-18T02:16:37.126Z,1029.87
2016-12-18T02:17:03.253Z,1029.84
2016-12-18T02:17:29.361Z,1029.84
2016-12-18T02:17:55.469Z,1029.84
2016-12-18T02:18:21.585Z,1029.78
2016-12-18T02:18:47.706Z,1029.86
2016-12-18T02:19:13.811Z,1029.83
2016-12-18T02:19:39.930Z,1029.86
2016-12-18T02:20:06.050Z,1029.87
2016-12-18T02:20:32.157Z,1029.85
2016-12-18T02:20:58.268Z,1029.92
2016-12-18T02:21:24.396Z,1029.91
2016-12-18T02:21:50.503Z,1029.9
2016-12-18T02:22:16.622Z,1029.98
2016-12-18T02:22:42.720Z,1029.92
2016-12-18T02:23:08.837Z,1029.86
2016-12-18T02:23:34.960Z,1029.92
2016-12-18T02:24:01.066Z,1029.94
2016-12-18T02:24:27.178Z,1029.9
2016-12-18T02:24:53.302Z,1029.95
2016-12-18T02:25:19.409Z,1030
2016-12-18T02:25:45.521Z,1029.97
2016-12-18T02:26:11.642Z,1029.92
2016-12-18T02:26:37.760Z,1029.94
2016-12-18T02:27:03.862Z,1029.98
2016-12-18T02:27:29.988Z,1029.97
2016-12-18T02:27:56.098Z,1029.96
2016-12-18T02:28:22.215Z,1029.91
2016-12-18T02:28:48.325Z,1029.91
2016-12-18T02:29:14.429Z,1029.93
2016-12-18T02:29:40.561Z,1029.9
2016-12-18T02:30:06.675Z,1029.93
2016-12-18T02:30:32.785Z,1029.91
2016-12-18T02:30:58.902Z,1029.89
2016-12-18T02:31:25.014Z,1029.88
2016-12-18T02:31:51.119Z,1029.9
2016-12-18T02:32:17.243Z,1029.91
2016-12-18T02:32:43.369Z,1029.9
2016-12-18T02:33:09.473Z,1029.87
2016-12-18T02:33:35.582Z,1029.91
2016-12-18T02:34:01.689Z,1029.9
2016-12-18T02:34:27.807Z,1029.93
2016-12-18T02:34:53.925Z,1029.93
2016-12-18T02:35:20.042Z,1029.9
2016-12-18T02:35:46.154Z,1029.95
2016-12-18T02:36:12.274Z,1029.95
2016-12-18T02:36:38.381Z,1029.97
2016-12-18T02:37:04.492Z,1029.94
2016-12-18T02:37:30.615Z,1030
2016-12-18T02:37:56.720Z,1030.02
2016-12-18T02:38:22.832Z,1029.99
2016-12-18T02:38:48.948Z,1029.99
2016-12-18T02:39:15.061Z,1030.04
2016-12-18T02:39:41.179Z,1030.04
2016-12-18T02:40:07.282Z,1030.03
2016-12-18T02:40:33.399Z,1030.06
2016-12-18T02:40:59.573Z,1030
2016-12-18T02:41:25.672Z,1030
2016-12-18T02:41:51.785Z,1030.04
2016-12-18T02:42:17.906Z,1030
2016-12-18T02:42:44.016Z,1030.02
2016-12-18T02:43:10.119Z,1030.01
2016-12-18T02:43:36.250Z,1030.03
2016-12-18T02:44:02.361Z,1030.05
2016-12-18T02:44:28.477Z,1030.04
2016-12-18T02:44:54.584Z,1030.07
2016-12-18T02:45:20.701Z,1030.1
2016-12-18T02:45:46.825Z,1030.12
2016-12-18T02:46:12.930Z,1030.1
2016-12-18T02:46:39.032Z,1030.12
2016-12-18T02:47:05.161Z,1030.15
2016-12-18T02:47:31.270Z,1030.14
2016-12-18T02:47:57.374Z,1030.1
2016-12-18T02:48:23.496Z,1030.12
2016-12-18T02:48:49.612Z,1030.12
2016-12-18T02:49:15.713Z,1030.11
2016-12-18T02:49:41.830Z,1030.09
2016-12-18T02:50:07.940Z,1030.14
2016-12-18T02:50:34.060Z,1030.13
2016-12-18T02:51:00.170Z,1030.11
2016-12-18T02:51:26.278Z,1030.13
2016-12-18T02:51:52.399Z,1030.16
2016-12-18T02:52:18.514Z,1030.19
2016-12-18T02:52:44.622Z,1030.15
2016-12-18T02:53:10.745Z,1030.19
2016-12-18T02:53:36.865Z,1030.19
2016-12-18T02:54:02.966Z,1030.22
2016-12-18T02:54:29.087Z,1030.16
2016-12-18T02:54:55.212Z,1030.16
2016-12-18T02:55:21.350Z,1030.17
2016-12-18T02:55:47.464Z,1030.16
2016-12-18T02:56:13.573Z,1030.14
2016-12-18T02:56:39.697Z,1030.16
2016-12-18T02:57:05.820Z,1030.17
2016-12-18T02:57:31.920Z,1030.16
2016-12-18T02:57:58.027Z,1030.14
2016-12-18T02:58:24.156Z,1030.1
2016-12-18T02:58:50.260Z,1030.2
2016-12-18T02:59:16.378Z,1030.15
2016-12-18T02:59:42.500Z,1030.17
2016-12-18T03:00:08.612Z,1030.18
2016-12-18T03:00:34.715Z,1030.16
2016-12-18T03:01:00.840Z,1030.23
2016-12-18T03:01:26.983Z,1030.21
2016-12-18T03:01:53.091Z,1030.2
2016-12-18T03:02:19.209Z,1030.2
2016-12-18T03:02:45.327Z,1030.24
2016-12-18T03:03:11.427Z,1030.25
2016-12-18T03:03:37.553Z,1030.29
2016-12-18T03:04:03.670Z,1030.24
2016-12-18T03:04:29.773Z,1030.27
2016-12-18T03:04:55.890Z,1030.27
2016-12-18T03:05:22.012Z,1030.23
2016-12-18T03:05:48.111Z,1030.24
2016-12-18T03:06:14.219Z,1030.22
2016-12-18T03:06:40.335Z,1030.17
2016-12-18T03:07:06.452Z,1030.22
2016-12-18T03:07:32.570Z,1030.21
2016-12-18T03:07:58.672Z,1030.2
2016-12-18T03:08:24.791Z,1030.23
2016-12-18T03:08:50.914Z,1030.18
2016-12-18T03:09:17.018Z,1030.19
2016-12-18T03:09:43.132Z,1030.19
2016-12-18T03:10:09.252Z,1030.16
2016-12-18T03:10:35.359Z,1030.22
2016-12-18T03:11:01.490Z,1030.2
2016-12-18T03:11:27.661Z,1030.19
2016-12-18T03:11:53.773Z,1030.23
2016-12-18T03:12:19.890Z,1030.22
2016-12-18T03:12:45.995Z,1030.2
2016-12-18T03:13:12.109Z,1030.23
2016-12-18T03:13:38.228Z,1030.24
2016-12-18T03:14:04.337Z,1030.24
2016-12-18T03:14:30.438Z,1030.27
2016-12-18T03:14:56.565Z,1030.32
2016-12-18T03:15:22.675Z,1030.29
2016-12-18T03:15:48.776Z,1030.3
2016-12-18T03:16:14.900Z,1030.28
2016-12-18T03:16:41.016Z,1030.29
2016-12-18T03:17:07.123Z,1030.25
2016-12-18T03:17:33.242Z,1030.25
2016-12-18T03:17:59.352Z,1030.25
2016-12-18T03:18:25.474Z,1030.25
2016-12-18T03:18:51.582Z,1030.21
2016-12-18T03:19:17.690Z,1030.26
2016-12-18T03:19:43.812Z,1030.21
2016-12-18T03:20:09.931Z,1030.26
2016-12-18T03:20:36.037Z,1030.22
2016-12-18T03:21:02.157Z,1030.22
2016-12-18T03:21:28.279Z,1030.22
2016-12-18T03:21:54.385Z,1030.23
2016-12-18T03:22:20.494Z,1030.24
2016-12-18T03:22:46.613Z,1030.22
2016-12-18T03:23:12.720Z,1030.23
2016-12-18T03:23:38.837Z,1030.24
2016-12-18T03:24:04.939Z,1030.23
2016-12-18T03:24:31.062Z,1030.22
2016-12-18T03:24:57.180Z,1030.21
2016-12-18T03:25:23.283Z,1030.22
2016-12-18T03:25:49.396Z,1030.26
2016-12-18T03:26:15.522Z,1030.27
2016-12-18T03:26:41.622Z,1030.23
2016-12-18T03:27:07.734Z,1030.23
2016-12-18T03:27:33.856Z,1030.29
2016-12-18T03:27:59.969Z,1030.25
2016-12-18T03:28:26.073Z,1030.21
2016-12-18T03:28:52.192Z,1030.26
2016-12-18T03:29:18.312Z,1030.26
2016-12-18T03:29:44.432Z,1030.23
2016-12-18T03:30:10.543Z,1030.23
2016-12-18T03:30:36.654Z,1030.21
2016-12-18T03:31:02.771Z,1030.23
2016-12-18T03:31:28.876Z,1030.23
2016-12-18T03:31:54.979Z,1030.2
2016-12-18T03:32:21.111Z,1030.18
2016-12-18T03:32:47.224Z,1030.17
2016-12-18T03:33:13.332Z,1030.17
2016-12-18T03:33:39.453Z,1030.15
2016-12-18T03:34:05.567Z,1030.18
2016-12-18T03:34:31.684Z,1030.19
2016-12-18T03:34:57.796Z,1030.18
2016-12-18T03:35:23.905Z,1030.19
2016-12-18T03:35:50.028Z,1030.16
2016-12-18T03:36:16.142Z,1030.18
2016-12-18T03:36:42.254Z,1030.15
2016-12-18T03:37:08.379Z,1030.15
2016-12-18T03:37:34.494Z,1030.15
2016-12-18T03:38:00.600Z,1030.12
2016-12-18T03:38:26.716Z,1030.11
2016-12-18T03:38:52.839Z,1030.09
2016-12-18T03:39:18.949Z,1030.13
2016-12-18T03:39:45.067Z,1030.14
2016-12-18T03:40:11.176Z,1030.12
2016-12-18T03:40:37.302Z,1030.17
2016-12-18T03:41:03.423Z,1030.19
2016-12-18T03:41:29.582Z,1030.17
2016-12-18T03:41:55.701Z,1030.15
2016-12-18T03:42:21.816Z,1030.16
2016-12-18T03:42:47.922Z,1030.17
2016-12-18T03:43:14.031Z,1030.13
2016-12-18T03:43:40.159Z,1030.19
2016-12-18T03:44:06.266Z,1030.18
2016-12-18T03:44:32.379Z,1030.15
2016-12-18T03:44:58.497Z,1030.15
2016-12-18T03:45:24.604Z,1030.14
2016-12-18T03:45:50.708Z,1030.17
2016-12-18T03:46:16.837Z,1030.18
2016-12-18T03:46:42.947Z,1030.16
2016-12-18T03:47:09.057Z,1030.15
2016-12-18T03:47:35.176Z,1030.16
2016-12-18T03:48:01.288Z,1030.15
2016-12-18T03:48:27.391Z,1030.16
2016-12-18T03:48:53.514Z,1030.14
2016-12-18T03:49:19.638Z,1030.15
2016-12-18T03:49:45.740Z,1030.14
2016-12-18T03:50:11.855Z,1030.15
2016-12-18T03:50:37.972Z,1030.16
2016-12-18T03:51:04.082Z,1030.19
2016-12-18T03:51:30.205Z,1030.17
2016-12-18T03:51:56.311Z,1030.18
2016-12-18T03:52:22.432Z,1030.13
2016-12-18T03:52:48.552Z,1030.12
2016-12-18T03:53:14.651Z,1030.15
2016-12-18T03:53:40.771Z,1030.13
2016-12-18T03:54:06.896Z,1030.15
2016-12-18T03:54:33.001Z,1030.11
2016-12-18T03:54:59.114Z,1030.12
2016-12-18T03:55:25.233Z,1030.11
2016-12-18T03:55:51.343Z,1030.12
2016-12-18T03:56:17.453Z,1030.12
2016-12-18T03:56:43.566Z,1030.12
2016-12-18T03:57:09.677Z,1030.1
2016-12-18T03:57:35.803Z,1030.12
2016-12-18T03:58:01.902Z,1030.08
2016-12-18T03:58:28.018Z,1030.12
2016-12-18T03:58:54.138Z,1030.1
2016-12-18T03:59:20.248Z,1030.09
2016-12-18T03:59:46.352Z,1030.09
2016-12-18T04:00:12.482Z,1030.07
2016-12-18T04:00:38.594Z,1030.08
2016-12-18T04:01:04.699Z,1030.07
2016-12-18T04:01:30.822Z,1030.1
2016-12-18T04:01:56.934Z,1030.08
2016-12-18T04:02:23.052Z,1030.07
2016-12-18T04:02:49.157Z,1030.09
2016-12-18T04:03:15.269Z,1030.05
2016-12-18T04:03:41.400Z,1030.05
2016-12-18T04:04:07.544Z,1030
2016-12-18T04:04:33.652Z,1029.99
2016-12-18T04:04:59.765Z,1030.01
2016-12-18T04:05:25.884Z,1029.92
2016-12-18T04:05:51.986Z,1029.96
2016-12-18T04:06:18.104Z,1029.99
2016-12-18T04:06:44.228Z,1029.98
2016-12-18T04:07:10.331Z,1029.98
2016-12-18T04:07:36.452Z,1030
2016-12-18T04:08:02.556Z,1030
2016-12-18T04:08:28.679Z,1029.99
2016-12-18T04:08:54.799Z,1029.97
2016-12-18T04:09:20.907Z,1030
2016-12-18T04:09:47.025Z,1029.94
2016-12-18T04:10:13.141Z,1029.92
2016-12-18T04:10:39.245Z,1029.92
2016-12-18T04:11:05.359Z,1029.88
2016-12-18T04:11:31.475Z,1029.93
2016-12-18T04:11:57.630Z,1029.89
2016-12-18T04:12:23.747Z,1029.88
2016-12-18T04:12:49.866Z,1029.88
2016-12-18T04:13:15.978Z,1029.88
2016-12-18T04:13:42.104Z,1029.78
2016-12-18T04:14:08.202Z,1029.82
2016-12-18T04:14:34.322Z,1029.8
2016-12-18T04:15:00.436Z,1029.79
2016-12-18T04:15:26.546Z,1029.71
2016-12-18T04:15:52.660Z,1029.71
2016-12-18T04:16:18.787Z,1029.69
2016-12-18T04:16:44.892Z,1029.67
2016-12-18T04:17:10.997Z,1029.72
2016-12-18T04:17:37.124Z,1029.69
2016-12-18T04:18:03.233Z,1029.69
2016-12-18T04:18:29.338Z,1029.69
2016-12-18T04:18:55.455Z,1029.68
2016-12-18T04:19:21.561Z,1029.68
2016-12-18T04:19:47.689Z,1029.67
2016-12-18T04:20:13.800Z,1029.7
2016-12-18T04:20:39.905Z,1029.67
2016-12-18T04:21:06.031Z,1029.66
2016-12-18T04:21:32.139Z,1029.65
2016-12-18T04:21:58.247Z,1029.59
2016-12-18T04:22:24.367Z,1029.6
2016-12-18T04:22:50.483Z,1029.57
2016-12-18T04:23:16.584Z,1029.59
2016-12-18T04:23:42.705Z,1029.58
2016-12-18T04:24:08.833Z,1029.56
2016-12-18T04:24:34.967Z,1029.57
2016-12-18T04:25:01.079Z,1029.59
2016-12-18T04:25:27.181Z,1029.6
2016-12-18T04:25:53.305Z,1029.56
2016-12-18T04:26:19.418Z,1029.57
2016-12-18T04:26:45.527Z,1029.6
2016-12-18T04:27:11.648Z,1029.58
2016-12-18T04:27:37.769Z,1029.57
2016-12-18T04:28:03.869Z,1029.53
2016-12-18T04:28:29.984Z,1029.52
2016-12-18T04:28:56.108Z,1029.48
2016-12-18T04:29:22.211Z,1029.49
2016-12-18T04:29:48.324Z,1029.5
2016-12-18T04:30:14.450Z,1029.48
2016-12-18T04:30:40.558Z,1029.5
2016-12-18T04:31:06.659Z,1029.45
2016-12-18T04:31:32.784Z,1029.5
2016-12-18T04:31:58.899Z,1029.49
2016-12-18T04:32:25.006Z,1029.51
2016-12-18T04:32:51.127Z,1029.51
2016-12-18T04:33:17.244Z,1029.5
2016-12-18T04:33:43.347Z,1029.48
2016-12-18T04:34:09.467Z,1029.5
2016-12-18T04:34:35.587Z,1029.49
2016-12-18T04:35:01.692Z,1029.51
2016-12-18T04:35:27.808Z,1029.55
2016-12-18T04:35:53.913Z,1029.49
2016-12-18T04:36:20.040Z,1029.49
2016-12-18T04:36:46.156Z,1029.52
2016-12-18T04:37:12.263Z,1029.55
2016-12-18T04:37:38.377Z,1029.59
2016-12-18T04:38:04.497Z,1029.56
2016-12-18T04:38:30.598Z,1029.56
2016-12-18T04:38:56.717Z,1029.55
2016-12-18T04:39:22.839Z,1029.51
2016-12-18T04:39:48.939Z,1029.52
2016-12-18T04:40:15.052Z,1029.51
2016-12-18T04:40:41.169Z,1029.5
2016-12-18T04:41:07.280Z,1029.49
2016-12-18T04:41:33.403Z,1029.5
2016-12-18T04:41:59.553Z,1029.49
2016-12-18T04:42:25.660Z,1029.47
2016-12-18T04:42:51.783Z,1029.51
2016-12-18T04:43:17.889Z,1029.5
2016-12-18T04:43:44.004Z,1029.5
2016-12-18T04:44:10.123Z,1029.54
2016-12-18T04:44:36.233Z,1029.56
2016-12-18T04:45:02.337Z,1029.6
2016-12-18T04:45:28.462Z,1029.64
2016-12-18T04:45:54.571Z,1029.62
2016-12-18T04:46:20.682Z,1029.62
2016-12-18T04:46:46.809Z,1029.66
2016-12-18T04:47:12.916Z,1029.65
2016-12-18T04:47:39.040Z,1029.62
2016-12-18T04:48:05.150Z,1029.62
2016-12-18T04:48:31.257Z,1029.66
2016-12-18T04:48:57.376Z,1029.64
2016-12-18T04:49:23.488Z,1029.61
2016-12-18T04:49:49.594Z,1029.61
2016-12-18T04:50:15.719Z,1029.58
2016-12-18T04:50:41.829Z,1029.65
2016-12-18T04:51:07.939Z,1029.6
2016-12-18T04:51:34.061Z,1029.55
2016-12-18T04:52:00.180Z,1029.57
2016-12-18T04:52:26.283Z,1029.55
2016-12-18T04:52:52.398Z,1029.56
2016-12-18T04:53:18.506Z,1029.55
2016-12-18T04:53:44.629Z,1029.6
2016-12-18T04:54:10.743Z,1029.59
2016-12-18T04:54:36.842Z,1029.56
2016-12-18T04:55:02.963Z,1029.55
2016-12-18T04:55:29.087Z,1029.55
2016-12-18T04:55:55.194Z,1029.55
2016-12-18T04:56:21.306Z,1029.58
2016-12-18T04:56:47.464Z,1029.58
2016-12-18T04:57:13.567Z,1029.56
2016-12-18T04:57:39.676Z,1029.56
2016-12-18T04:58:05.793Z,1029.55
2016-12-18T04:58:31.907Z,1029.53
2016-12-18T04:58:58.033Z,1029.55
2016-12-18T04:59:24.137Z,1029.57
2016-12-18T04:59:50.250Z,1029.53
2016-12-18T05:00:16.375Z,1029.57
2016-12-18T05:00:42.475Z,1029.62
2016-12-18T05:01:08.588Z,1029.59
2016-12-18T05:01:34.707Z,1029.57
2016-12-18T05:02:00.818Z,1029.58
2016-12-18T05:02:26.921Z,1029.6
2016-12-18T05:02:53.049Z,1029.61
2016-12-18T05:03:19.158Z,1029.59
2016-12-18T05:03:45.275Z,1029.61
2016-12-18T05:04:11.379Z,1029.59
2016-12-18T05:04:37.495Z,1029.59
2016-12-18T05:05:03.616Z,1029.59
2016-12-18T05:05:29.726Z,1029.55
2016-12-18T05:05:55.830Z,1029.55
2016-12-18T05:06:21.957Z,1029.53
2016-12-18T05:06:48.066Z,1029.56
2016-12-18T05:07:14.177Z,1029.56
2016-12-18T05:07:40.299Z,1029.57
2016-12-18T05:08:06.420Z,1029.55
2016-12-18T05:08:32.521Z,1029.56
2016-12-18T05:08:58.636Z,1029.56
2016-12-18T05:09:24.746Z,1029.57
2016-12-18T05:09:50.868Z,1029.55
2016-12-18T05:10:16.981Z,1029.57
2016-12-18T05:10:43.084Z,1029.55
2016-12-18T05:11:09.200Z,1029.53
2016-12-18T05:11:35.317Z,1029.51
2016-12-18T05:12:01.427Z,1029.49
2016-12-18T05:12:27.547Z,1029.51
2016-12-18T05:12:53.666Z,1029.5
2016-12-18T05:13:19.772Z,1029.46
2016-12-18T05:13:45.886Z,1029.45
2016-12-18T05:14:12.014Z,1029.45
2016-12-18T05:14:38.119Z,1029.42
2016-12-18T05:15:04.231Z,1029.4
2016-12-18T05:15:30.352Z,1029.36
2016-12-18T05:15:56.493Z,1029.37
2016-12-18T05:16:22.602Z,1029.36
2016-12-18T05:16:48.731Z,1029.31
2016-12-18T05:17:14.840Z,1029.29